sensor_id;sensor_type;location;lat;lon;timestamp;pressure;altitude;pressure_sealevel;temperature;humidity
46944;BME280;32678;43.852;25.952;2023-04-25T00:01:25;100365.66;;;16.99;76.97
46944;BME280;32678;43.852;25.952;2023-04-25T00:06:22;100356.78;;;16.59;78.15
46944;BME280;32678;43.852;25.952;2023-04-25T00:11:23;100356.97;;;16.42;78.04
46944;BME280;32678;43.852;25.952;2023-04-25T00:16:19;100353.13;;;16.19;78.98
46944;BME280;32678;43.852;25.952;2023-04-25T00:21:17;100357.19;;;16.25;78.62
46944;BME280;32678;43.852;25.952;2023-04-25T00:26:16;100360.97;;;16.21;78.58
46944;BME280;32678;43.852;25.952;2023-04-25T00:31:14;100361.44;;;15.85;80.10
46944;BME280;32678;43.852;25.952;2023-04-25T00:36:11;100361.63;;;15.82;80.25
46944;BME280;32678;43.852;25.952;2023-04-25T00:41:08;100350.22;;;15.81;80.80
46944;BME280;32678;43.852;25.952;2023-04-25T00:46:04;100345.78;;;15.82;81.30
46944;BME280;32678;43.852;25.952;2023-04-25T00:51:02;100337.94;;;15.80;80.69
46944;BME280;32678;43.852;25.952;2023-04-25T00:55:59;100331.69;;;15.95;79.95
46944;BME280;32678;43.852;25.952;2023-04-25T01:00:55;100323.97;;;15.92;80.08
46944;BME280;32678;43.852;25.952;2023-04-25T01:05:53;100321.03;;;16.11;79.98
46944;BME280;32678;43.852;25.952;2023-04-25T01:10:51;100307.81;;;16.11;79.37
46944;BME280;32678;43.852;25.952;2023-04-25T01:15:48;100304.97;;;16.14;78.11
46944;BME280;32678;43.852;25.952;2023-04-25T01:20:45;100297.50;;;16.21;77.70
46944;BME280;32678;43.852;25.952;2023-04-25T01:25:43;100278.22;;;16.19;77.42
46944;BME280;32678;43.852;25.952;2023-04-25T01:30:39;100271.50;;;16.13;77.75
46944;BME280;32678;43.852;25.952;2023-04-25T01:35:37;100253.94;;;16.26;77.22
46944;BME280;32678;43.852;25.952;2023-04-25T01:40:34;100245.91;;;16.55;76.59
46944;BME280;32678;43.852;25.952;2023-04-25T01:45:32;100241.69;;;16.92;74.39
46944;BME280;32678;43.852;25.952;2023-04-25T01:50:29;100237.94;;;16.81;73.96
46944;BME280;32678;43.852;25.952;2023-04-25T01:55:26;100237.22;;;16.92;73.23
46944;BME280;32678;43.852;25.952;2023-04-25T02:00:33;100234.25;;;16.84;73.54
46944;BME280;32678;43.852;25.952;2023-04-25T02:05:34;100232.06;;;16.91;73.59
46944;BME280;32678;43.852;25.952;2023-04-25T02:10:31;100218.31;;;17.23;73.33
46944;BME280;32678;43.852;25.952;2023-04-25T02:15:43;100220.56;;;17.67;71.62
46944;BME280;32678;43.852;25.952;2023-04-25T02:20:44;100206.94;;;17.85;71.74
46944;BME280;32678;43.852;25.952;2023-04-25T02:25:42;100213.06;;;17.98;72.57
46944;BME280;32678;43.852;25.952;2023-04-25T02:30:39;100218.25;;;18.23;72.25
46944;BME280;32678;43.852;25.952;2023-04-25T02:35:36;100220.19;;;18.21;71.72
46944;BME280;32678;43.852;25.952;2023-04-25T02:40:33;100211.38;;;18.21;71.50
46944;BME280;32678;43.852;25.952;2023-04-25T02:45:38;100201.22;;;18.38;70.74
46944;BME280;32678;43.852;25.952;2023-04-25T02:50:36;100201.00;;;18.41;70.47
46944;BME280;32678;43.852;25.952;2023-04-25T02:55:33;100201.28;;;18.49;69.79
46944;BME280;32678;43.852;25.952;2023-04-25T03:00:32;100192.47;;;18.49;68.87
46944;BME280;32678;43.852;25.952;2023-04-25T03:05:28;100197.38;;;18.42;68.91
46944;BME280;32678;43.852;25.952;2023-04-25T03:10:26;100196.50;;;18.54;68.18
46944;BME280;32678;43.852;25.952;2023-04-25T03:15:25;100202.66;;;18.55;68.20
46944;BME280;32678;43.852;25.952;2023-04-25T03:20:22;100198.56;;;18.62;68.16
46944;BME280;32678;43.852;25.952;2023-04-25T03:25:19;100205.88;;;18.71;68.22
46944;BME280;32678;43.852;25.952;2023-04-25T03:30:17;100203.31;;;18.70;67.42
46944;BME280;32678;43.852;25.952;2023-04-25T03:35:14;100205.63;;;18.74;67.19
46944;BME280;32678;43.852;25.952;2023-04-25T03:40:11;100219.16;;;18.82;66.64
46944;BME280;32678;43.852;25.952;2023-04-25T03:45:34;100204.47;;;18.54;67.15
46944;BME280;32678;43.852;25.952;2023-04-25T03:50:31;100223.03;;;18.78;67.18
46944;BME280;32678;43.852;25.952;2023-04-25T03:55:28;100212.91;;;18.83;64.73
46944;BME280;32678;43.852;25.952;2023-04-25T04:00:25;100219.81;;;18.62;62.32
46944;BME280;32678;43.852;25.952;2023-04-25T04:05:25;100229.44;;;18.76;62.45
46944;BME280;32678;43.852;25.952;2023-04-25T04:10:25;100223.13;;;18.77;60.43
46944;BME280;32678;43.852;25.952;2023-04-25T04:15:24;100230.13;;;18.67;62.78
46944;BME280;32678;43.852;25.952;2023-04-25T04:20:25;100228.41;;;18.66;63.62
46944;BME280;32678;43.852;25.952;2023-04-25T04:25:22;100226.97;;;18.62;63.71
46944;BME280;32678;43.852;25.952;2023-04-25T04:30:57;100224.00;;;18.53;61.42
46944;BME280;32678;43.852;25.952;2023-04-25T04:35:56;100240.34;;;18.47;61.46
46944;BME280;32678;43.852;25.952;2023-04-25T04:40:53;100224.59;;;18.33;63.98
46944;BME280;32678;43.852;25.952;2023-04-25T04:46:10;100227.41;;;18.43;66.34
46944;BME280;32678;43.852;25.952;2023-04-25T04:51:22;100223.81;;;18.44;66.63
46944;BME280;32678;43.852;25.952;2023-04-25T04:56:56;100229.69;;;18.36;67.16
46944;BME280;32678;43.852;25.952;2023-04-25T05:02:19;100222.19;;;18.30;67.94
46944;BME280;32678;43.852;25.952;2023-04-25T05:07:26;100222.25;;;18.41;67.94
46944;BME280;32678;43.852;25.952;2023-04-25T05:12:32;100216.44;;;18.60;67.80
46944;BME280;32678;43.852;25.952;2023-04-25T05:17:42;100212.84;;;18.61;67.77
46944;BME280;32678;43.852;25.952;2023-04-25T05:22:40;100224.31;;;18.62;68.08
46944;BME280;32678;43.852;25.952;2023-04-25T05:27:42;100223.22;;;18.64;67.56
46944;BME280;32678;43.852;25.952;2023-04-25T05:32:57;100232.28;;;18.62;67.81
46944;BME280;32678;43.852;25.952;2023-04-25T05:37:56;100224.41;;;18.60;67.65
46944;BME280;32678;43.852;25.952;2023-04-25T05:43:09;100233.22;;;18.48;67.84
46944;BME280;32678;43.852;25.952;2023-04-25T05:48:27;100229.00;;;18.22;65.77
46944;BME280;32678;43.852;25.952;2023-04-25T05:53:45;100220.13;;;18.10;66.88
46944;BME280;32678;43.852;25.952;2023-04-25T05:58:45;100220.16;;;17.97;66.50
46944;BME280;32678;43.852;25.952;2023-04-25T06:03:42;100219.56;;;17.56;68.77
46944;BME280;32678;43.852;25.952;2023-04-25T06:08:47;100236.22;;;17.45;70.42
46944;BME280;32678;43.852;25.952;2023-04-25T06:13:44;100229.31;;;17.55;70.62
46944;BME280;32678;43.852;25.952;2023-04-25T06:18:41;100232.19;;;17.78;70.43
46944;BME280;32678;43.852;25.952;2023-04-25T06:23:41;100220.31;;;17.83;70.32
46944;BME280;32678;43.852;25.952;2023-04-25T06:28:42;100220.59;;;17.91;70.42
46944;BME280;32678;43.852;25.952;2023-04-25T06:33:39;100219.59;;;18.05;70.29
46944;BME280;32678;43.852;25.952;2023-04-25T06:38:36;100215.81;;;17.96;69.64
46944;BME280;32678;43.852;25.952;2023-04-25T06:43:35;100211.50;;;17.83;70.58
46944;BME280;32678;43.852;25.952;2023-04-25T06:48:56;100211.59;;;17.81;71.10
46944;BME280;32678;43.852;25.952;2023-04-25T06:53:54;100208.41;;;17.89;70.47
46944;BME280;32678;43.852;25.952;2023-04-25T06:59:23;100205.31;;;17.95;70.43
46944;BME280;32678;43.852;25.952;2023-04-25T07:04:38;100209.66;;;17.96;71.70
46944;BME280;32678;43.852;25.952;2023-04-25T07:10:30;100218.63;;;17.31;73.57
46944;BME280;32678;43.852;25.952;2023-04-25T07:16:23;100221.06;;;16.43;77.96
46944;BME280;32678;43.852;25.952;2023-04-25T07:21:25;100225.78;;;16.25;79.66
46944;BME280;32678;43.852;25.952;2023-04-25T07:26:46;100221.91;;;16.31;80.06
46944;BME280;32678;43.852;25.952;2023-04-25T07:32:21;100210.84;;;16.24;80.71
46944;BME280;32678;43.852;25.952;2023-04-25T07:43:49;100213.81;;;16.86;79.51
46944;BME280;32678;43.852;25.952;2023-04-25T07:49:23;100214.50;;;16.63;79.88
46944;BME280;32678;43.852;25.952;2023-04-25T07:54:45;100190.78;;;16.34;79.49
46944;BME280;32678;43.852;25.952;2023-04-25T08:06:12;100209.41;;;16.99;78.72
46944;BME280;32678;43.852;25.952;2023-04-25T08:11:49;100207.16;;;17.56;78.33
46944;BME280;32678;43.852;25.952;2023-04-25T08:16:53;100201.94;;;17.93;76.60
46944;BME280;32678;43.852;25.952;2023-04-25T08:22:20;100215.25;;;17.67;74.84
46944;BME280;32678;43.852;25.952;2023-04-25T08:28:08;100231.03;;;17.82;74.22
46944;BME280;32678;43.852;25.952;2023-04-25T08:34:08;100228.69;;;17.64;76.28
46944;BME280;32678;43.852;25.952;2023-04-25T08:46:00;100231.94;;;18.30;73.80
46944;BME280;32678;43.852;25.952;2023-04-25T08:51:40;100222.09;;;18.43;72.52
46944;BME280;32678;43.852;25.952;2023-04-25T08:56:55;100217.06;;;18.64;71.54
46944;BME280;32678;43.852;25.952;2023-04-25T09:01:54;100219.97;;;18.72;70.20
46944;BME280;32678;43.852;25.952;2023-04-25T09:06:52;100185.25;;;18.75;70.33
46944;BME280;32678;43.852;25.952;2023-04-25T09:11:49;100212.78;;;18.85;71.10
46944;BME280;32678;43.852;25.952;2023-04-25T09:22:11;100202.13;;;18.74;71.43
46944;BME280;32678;43.852;25.952;2023-04-25T09:27:09;100205.53;;;18.87;72.08
46944;BME280;32678;43.852;25.952;2023-04-25T09:32:13;100194.13;;;19.09;73.99
46944;BME280;32678;43.852;25.952;2023-04-25T09:37:12;100183.63;;;19.18;73.45
46944;BME280;32678;43.852;25.952;2023-04-25T09:42:44;100186.81;;;19.45;75.34
46944;BME280;32678;43.852;25.952;2023-04-25T09:47:41;100185.03;;;19.68;73.51
46944;BME280;32678;43.852;25.952;2023-04-25T09:52:48;100179.06;;;19.87;71.71
46944;BME280;32678;43.852;25.952;2023-04-25T09:58:04;100180.25;;;19.94;71.03
46944;BME280;32678;43.852;25.952;2023-04-25T10:03:01;100179.06;;;19.98;68.65
46944;BME280;32678;43.852;25.952;2023-04-25T10:08:21;100177.19;;;20.10;66.55
46944;BME280;32678;43.852;25.952;2023-04-25T10:13:19;100171.66;;;20.13;67.72
46944;BME280;32678;43.852;25.952;2023-04-25T10:18:16;100166.41;;;20.22;64.80
46944;BME280;32678;43.852;25.952;2023-04-25T10:23:17;100165.28;;;20.25;58.96
46944;BME280;32678;43.852;25.952;2023-04-25T10:28:17;100163.97;;;20.30;58.94
46944;BME280;32678;43.852;25.952;2023-04-25T10:33:16;100151.41;;;20.33;56.40
46944;BME280;32678;43.852;25.952;2023-04-25T10:38:14;100158.47;;;20.43;57.27
46944;BME280;32678;43.852;25.952;2023-04-25T10:48:29;100158.25;;;20.46;57.96
46944;BME280;32678;43.852;25.952;2023-04-25T10:53:27;100155.75;;;20.22;57.71
46944;BME280;32678;43.852;25.952;2023-04-25T10:58:27;100149.34;;;20.14;56.95
46944;BME280;32678;43.852;25.952;2023-04-25T11:03:24;100147.03;;;20.31;56.69
46944;BME280;32678;43.852;25.952;2023-04-25T11:08:24;100132.16;;;19.86;58.18
46944;BME280;32678;43.852;25.952;2023-04-25T11:13:28;100131.19;;;19.76;59.13
46944;BME280;32678;43.852;25.952;2023-04-25T11:18:26;100135.63;;;19.98;56.68
46944;BME280;32678;43.852;25.952;2023-04-25T11:23:24;100140.78;;;19.56;58.80
46944;BME280;32678;43.852;25.952;2023-04-25T11:28:23;100132.91;;;19.43;59.06
46944;BME280;32678;43.852;25.952;2023-04-25T11:33:23;100131.34;;;19.52;59.36
46944;BME280;32678;43.852;25.952;2023-04-25T11:38:20;100133.75;;;19.33;61.60
46944;BME280;32678;43.852;25.952;2023-04-25T11:43:20;100131.22;;;19.31;64.80
46944;BME280;32678;43.852;25.952;2023-04-25T11:48:17;100136.56;;;19.54;66.01
46944;BME280;32678;43.852;25.952;2023-04-25T11:53:17;100127.44;;;19.12;68.72
46944;BME280;32678;43.852;25.952;2023-04-25T11:58:14;100129.00;;;18.92;69.76
46944;BME280;32678;43.852;25.952;2023-04-25T12:03:12;100116.09;;;18.52;73.87
46944;BME280;32678;43.852;25.952;2023-04-25T12:08:09;100122.84;;;18.45;74.44
46944;BME280;32678;43.852;25.952;2023-04-25T12:13:18;100111.81;;;18.39;74.44
46944;BME280;32678;43.852;25.952;2023-04-25T12:18:19;100099.53;;;18.14;75.60
46944;BME280;32678;43.852;25.952;2023-04-25T12:23:17;100092.03;;;18.32;73.50
46944;BME280;32678;43.852;25.952;2023-04-25T12:28:21;100079.47;;;18.34;71.63
46944;BME280;32678;43.852;25.952;2023-04-25T12:33:23;100061.78;;;18.45;71.05
46944;BME280;32678;43.852;25.952;2023-04-25T12:38:24;100068.16;;;18.67;69.27
46944;BME280;32678;43.852;25.952;2023-04-25T12:43:32;100058.97;;;18.93;67.57
46944;BME280;32678;43.852;25.952;2023-04-25T12:48:30;100057.53;;;18.89;68.11
46944;BME280;32678;43.852;25.952;2023-04-25T12:53:30;100054.03;;;18.99;66.37
46944;BME280;32678;43.852;25.952;2023-04-25T12:58:28;100045.09;;;18.78;68.05
46944;BME280;32678;43.852;25.952;2023-04-25T13:03:25;100023.13;;;18.98;66.22
46944;BME280;32678;43.852;25.952;2023-04-25T13:08:23;100018.50;;;19.34;67.47
46944;BME280;32678;43.852;25.952;2023-04-25T13:13:23;100019.47;;;19.76;65.60
46944;BME280;32678;43.852;25.952;2023-04-25T13:18:19;100029.28;;;19.75;59.15
46944;BME280;32678;43.852;25.952;2023-04-25T13:23:17;100033.13;;;19.82;59.37
46944;BME280;32678;43.852;25.952;2023-04-25T13:28:14;100001.78;;;19.86;60.02
46944;BME280;32678;43.852;25.952;2023-04-25T13:33:12;100024.19;;;20.04;58.15
46944;BME280;32678;43.852;25.952;2023-04-25T13:38:08;100032.81;;;19.97;58.52
46944;BME280;32678;43.852;25.952;2023-04-25T13:43:05;100039.06;;;20.07;56.47
46944;BME280;32678;43.852;25.952;2023-04-25T13:48:03;100049.78;;;19.84;57.65
46944;BME280;32678;43.852;25.952;2023-04-25T13:53:00;100043.84;;;19.92;58.67
46944;BME280;32678;43.852;25.952;2023-04-25T13:57:57;100037.72;;;19.80;58.97
46944;BME280;32678;43.852;25.952;2023-04-25T14:02:54;100039.50;;;19.91;58.97
46944;BME280;32678;43.852;25.952;2023-04-25T14:07:52;100034.00;;;20.04;59.67
46944;BME280;32678;43.852;25.952;2023-04-25T14:12:49;100031.97;;;19.96;59.05
46944;BME280;32678;43.852;25.952;2023-04-25T14:17:46;100020.59;;;19.94;58.30
46944;BME280;32678;43.852;25.952;2023-04-25T14:22:44;100015.06;;;19.97;58.70
46944;BME280;32678;43.852;25.952;2023-04-25T14:27:42;100010.19;;;20.02;57.46
46944;BME280;32678;43.852;25.952;2023-04-25T14:32:40;100007.31;;;19.94;55.13
46944;BME280;32678;43.852;25.952;2023-04-25T14:37:39;100010.88;;;20.04;54.44
46944;BME280;32678;43.852;25.952;2023-04-25T14:42:36;100003.63;;;20.06;54.64
46944;BME280;32678;43.852;25.952;2023-04-25T14:47:36;100007.00;;;20.29;55.29
46944;BME280;32678;43.852;25.952;2023-04-25T14:52:34;100029.13;;;19.88;55.31
46944;BME280;32678;43.852;25.952;2023-04-25T14:57:31;100029.19;;;19.66;58.60
46944;BME280;32678;43.852;25.952;2023-04-25T15:02:28;100037.38;;;19.09;63.22
46944;BME280;32678;43.852;25.952;2023-04-25T15:07:25;100047.38;;;18.60;67.63
46944;BME280;32678;43.852;25.952;2023-04-25T15:12:22;100054.88;;;18.32;67.95
46944;BME280;32678;43.852;25.952;2023-04-25T15:17:19;100073.97;;;18.37;67.40
46944;BME280;32678;43.852;25.952;2023-04-25T15:22:19;100076.06;;;17.49;69.74
46944;BME280;32678;43.852;25.952;2023-04-25T15:27:17;100075.59;;;17.06;72.94
46944;BME280;32678;43.852;25.952;2023-04-25T15:32:14;100074.88;;;16.79;74.86
46944;BME280;32678;43.852;25.952;2023-04-25T15:37:11;100069.38;;;16.95;76.27
46944;BME280;32678;43.852;25.952;2023-04-25T15:42:07;100068.09;;;16.75;77.07
46944;BME280;32678;43.852;25.952;2023-04-25T15:47:05;100079.22;;;16.15;79.35
46944;BME280;32678;43.852;25.952;2023-04-25T15:52:02;100068.84;;;16.12;79.69
46944;BME280;32678;43.852;25.952;2023-04-25T15:56:58;100066.63;;;15.79;79.49
46944;BME280;32678;43.852;25.952;2023-04-25T16:01:55;100062.97;;;15.94;80.44
46944;BME280;32678;43.852;25.952;2023-04-25T16:06:53;100059.75;;;15.77;81.43
46944;BME280;32678;43.852;25.952;2023-04-25T16:11:50;100050.72;;;15.67;81.56
46944;BME280;32678;43.852;25.952;2023-04-25T16:16:47;100044.97;;;15.60;81.97
46944;BME280;32678;43.852;25.952;2023-04-25T16:21:43;100056.56;;;15.72;82.58
46944;BME280;32678;43.852;25.952;2023-04-25T16:26:41;100047.47;;;15.76;82.94
46944;BME280;32678;43.852;25.952;2023-04-25T16:31:38;100039.50;;;15.63;82.28
46944;BME280;32678;43.852;25.952;2023-04-25T16:36:35;100033.91;;;15.68;81.66
46944;BME280;32678;43.852;25.952;2023-04-25T16:41:32;100032.28;;;15.38;83.67
46944;BME280;32678;43.852;25.952;2023-04-25T16:46:29;100029.19;;;15.73;82.07
46944;BME280;32678;43.852;25.952;2023-04-25T16:51:29;100015.38;;;15.41;81.65
46944;BME280;32678;43.852;25.952;2023-04-25T16:56:27;100045.91;;;15.86;81.87
46944;BME280;32678;43.852;25.952;2023-04-25T17:01:33;100046.16;;;15.69;81.09
46944;BME280;32678;43.852;25.952;2023-04-25T17:06:30;100059.72;;;15.36;82.82
46944;BME280;32678;43.852;25.952;2023-04-25T17:11:26;100059.97;;;14.90;84.09
46944;BME280;32678;43.852;25.952;2023-04-25T17:16:27;100060.97;;;15.30;83.14
46944;BME280;32678;43.852;25.952;2023-04-25T17:21:30;100061.84;;;14.88;84.40
46944;BME280;32678;43.852;25.952;2023-04-25T17:26:26;100057.22;;;14.92;84.19
46944;BME280;32678;43.852;25.952;2023-04-25T17:31:23;100067.78;;;14.92;84.57
46944;BME280;32678;43.852;25.952;2023-04-25T17:36:22;100076.06;;;14.86;84.93
46944;BME280;32678;43.852;25.952;2023-04-25T17:41:19;100083.53;;;14.65;85.45
46944;BME280;32678;43.852;25.952;2023-04-25T17:46:16;100094.69;;;14.40;87.36
46944;BME280;32678;43.852;25.952;2023-04-25T17:51:12;100108.41;;;14.61;87.02
46944;BME280;32678;43.852;25.952;2023-04-25T17:56:09;100112.34;;;14.54;87.42
46944;BME280;32678;43.852;25.952;2023-04-25T18:01:23;100094.84;;;14.37;87.57
46944;BME280;32678;43.852;25.952;2023-04-25T18:06:19;100125.41;;;14.41;88.73
46944;BME280;32678;43.852;25.952;2023-04-25T18:11:16;100127.03;;;14.58;87.60
46944;BME280;32678;43.852;25.952;2023-04-25T18:16:13;100131.63;;;14.84;86.18
46944;BME280;32678;43.852;25.952;2023-04-25T18:21:11;100133.50;;;15.10;84.74
46944;BME280;32678;43.852;25.952;2023-04-25T18:26:08;100135.03;;;15.29;82.32
46944;BME280;32678;43.852;25.952;2023-04-25T18:31:05;100144.63;;;15.30;80.86
46944;BME280;32678;43.852;25.952;2023-04-25T18:36:02;100145.09;;;15.36;79.98
46944;BME280;32678;43.852;25.952;2023-04-25T18:40:59;100150.75;;;15.30;80.49
46944;BME280;32678;43.852;25.952;2023-04-25T18:46:16;100153.31;;;15.46;77.43
46944;BME280;32678;43.852;25.952;2023-04-25T18:51:17;100145.88;;;15.38;77.15
46944;BME280;32678;43.852;25.952;2023-04-25T18:56:15;100148.22;;;15.43;75.58
46944;BME280;32678;43.852;25.952;2023-04-25T19:01:12;100157.16;;;15.40;76.51
46944;BME280;32678;43.852;25.952;2023-04-25T19:06:09;100151.25;;;15.51;74.05
46944;BME280;32678;43.852;25.952;2023-04-25T19:11:06;100147.66;;;15.38;74.73
46944;BME280;32678;43.852;25.952;2023-04-25T19:16:17;100157.66;;;15.47;73.48
46944;BME280;32678;43.852;25.952;2023-04-25T19:21:14;100153.66;;;15.40;73.97
46944;BME280;32678;43.852;25.952;2023-04-25T19:26:11;100157.53;;;15.20;73.75
46944;BME280;32678;43.852;25.952;2023-04-25T19:31:09;100150.94;;;14.85;76.80
46944;BME280;32678;43.852;25.952;2023-04-25T19:36:07;100155.84;;;14.31;79.14
46944;BME280;32678;43.852;25.952;2023-04-25T19:41:04;100151.41;;;13.70;82.58
46944;BME280;32678;43.852;25.952;2023-04-25T19:46:01;100153.50;;;13.79;83.48
46944;BME280;32678;43.852;25.952;2023-04-25T19:50:58;100146.72;;;13.60;85.13
46944;BME280;32678;43.852;25.952;2023-04-25T19:55:55;100148.25;;;13.48;86.58
46944;BME280;32678;43.852;25.952;2023-04-25T20:00:53;100142.38;;;13.59;86.10
46944;BME280;32678;43.852;25.952;2023-04-25T20:05:52;100148.06;;;13.51;86.79
46944;BME280;32678;43.852;25.952;2023-04-25T20:10:49;100133.72;;;13.57;86.51
46944;BME280;32678;43.852;25.952;2023-04-25T20:15:47;100144.06;;;13.44;86.98
46944;BME280;32678;43.852;25.952;2023-04-25T20:20:45;100144.84;;;13.46;86.62
46944;BME280;32678;43.852;25.952;2023-04-25T20:25:42;100132.34;;;13.50;86.42
46944;BME280;32678;43.852;25.952;2023-04-25T20:30:39;100141.44;;;13.28;86.93
46944;BME280;32678;43.852;25.952;2023-04-25T20:35:37;100132.06;;;13.23;86.70
46944;BME280;32678;43.852;25.952;2023-04-25T20:40:33;100127.75;;;13.37;85.16
46944;BME280;32678;43.852;25.952;2023-04-25T20:45:30;100122.41;;;13.55;84.04
46944;BME280;32678;43.852;25.952;2023-04-25T20:50:28;100115.94;;;13.44;83.61
46944;BME280;32678;43.852;25.952;2023-04-25T20:55:26;100114.34;;;13.58;82.60
46944;BME280;32678;43.852;25.952;2023-04-25T21:00:22;100104.75;;;13.57;81.97
46944;BME280;32678;43.852;25.952;2023-04-25T21:05:22;100112.72;;;13.71;81.04
46944;BME280;32678;43.852;25.952;2023-04-25T21:10:19;100110.75;;;13.74;80.64
46944;BME280;32678;43.852;25.952;2023-04-25T21:15:22;100102.63;;;13.63;79.72
46944;BME280;32678;43.852;25.952;2023-04-25T21:20:19;100100.94;;;13.78;79.07
46944;BME280;32678;43.852;25.952;2023-04-25T21:25:17;100104.38;;;13.78;78.56
46944;BME280;32678;43.852;25.952;2023-04-25T21:30:15;100106.78;;;13.67;79.01
46944;BME280;32678;43.852;25.952;2023-04-25T21:35:13;100101.00;;;13.76;78.94
46944;BME280;32678;43.852;25.952;2023-04-25T21:40:10;100098.94;;;13.97;77.74
46944;BME280;32678;43.852;25.952;2023-04-25T21:45:08;100090.28;;;14.25;75.75
46944;BME280;32678;43.852;25.952;2023-04-25T21:50:05;100091.22;;;14.24;75.59
46944;BME280;32678;43.852;25.952;2023-04-25T21:55:03;100083.66;;;14.18;76.05
46944;BME280;32678;43.852;25.952;2023-04-25T22:00:01;100095.59;;;14.09;75.49
46944;BME280;32678;43.852;25.952;2023-04-25T22:05:01;100088.47;;;14.41;74.24
46944;BME280;32678;43.852;25.952;2023-04-25T22:09:57;100092.94;;;14.55;72.89
46944;BME280;32678;43.852;25.952;2023-04-25T22:14:55;100088.97;;;14.62;72.93
46944;BME280;32678;43.852;25.952;2023-04-25T22:19:52;100095.38;;;14.58;73.41
46944;BME280;32678;43.852;25.952;2023-04-25T22:24:48;100096.22;;;14.58;73.61
46944;BME280;32678;43.852;25.952;2023-04-25T22:29:45;100093.66;;;14.57;73.34
46944;BME280;32678;43.852;25.952;2023-04-25T22:34:43;100089.38;;;14.84;72.69
46944;BME280;32678;43.852;25.952;2023-04-25T22:39:40;100093.03;;;14.96;72.25
46944;BME280;32678;43.852;25.952;2023-04-25T22:44:37;100092.88;;;14.85;73.01
46944;BME280;32678;43.852;25.952;2023-04-25T22:49:33;100084.81;;;14.58;74.24
46944;BME280;32678;43.852;25.952;2023-04-25T22:54:30;100081.88;;;14.48;74.05
46944;BME280;32678;43.852;25.952;2023-04-25T22:59:27;100082.69;;;14.35;74.70
46944;BME280;32678;43.852;25.952;2023-04-25T23:04:24;100088.56;;;14.24;75.50
46944;BME280;32678;43.852;25.952;2023-04-25T23:09:21;100087.50;;;14.12;75.63
46944;BME280;32678;43.852;25.952;2023-04-25T23:14:19;100078.03;;;14.24;75.58
46944;BME280;32678;43.852;25.952;2023-04-25T23:19:18;100079.44;;;14.45;73.59
46944;BME280;32678;43.852;25.952;2023-04-25T23:24:15;100075.03;;;14.46;72.80
46944;BME280;32678;43.852;25.952;2023-04-25T23:29:12;100074.47;;;14.55;71.66
46944;BME280;32678;43.852;25.952;2023-04-25T23:34:11;100065.22;;;14.62;71.25
46944;BME280;32678;43.852;25.952;2023-04-25T23:39:08;100066.63;;;14.53;70.64
46944;BME280;32678;43.852;25.952;2023-04-25T23:44:05;100063.41;;;14.48;70.88
46944;BME280;32678;43.852;25.952;2023-04-25T23:49:04;100074.19;;;14.59;69.68
46944;BME280;32678;43.852;25.952;2023-04-25T23:54:01;100066.13;;;14.47;70.37
46944;BME280;32678;43.852;25.952;2023-04-25T23:59:01;100060.69;;;14.50;70.01
